sensor_id;sensor_type;location;lat;lon;timestamp;P1;durP1;ratioP1;P2;durP2;ratioP2
56267;SDS011;42175;46.930;9.532;2023-05-21T00:01:41;6.82;;;4.10;;
56267;SDS011;42175;46.930;9.532;2023-05-21T00:04:07;7.53;;;4.35;;
56267;SDS011;42175;46.930;9.532;2023-05-21T00:06:35;4.97;;;3.95;;
56267;SDS011;42175;46.930;9.532;2023-05-21T00:09:02;6.68;;;3.97;;
56267;SDS011;42175;46.930;9.532;2023-05-21T00:11:29;5.57;;;3.80;;
56267;SDS011;42175;46.930;9.532;2023-05-21T00:13:55;6.70;;;4.50;;
56267;SDS011;42175;46.930;9.532;2023-05-21T00:16:21;8.15;;;4.13;;
56267;SDS011;42175;46.930;9.532;2023-05-21T00:18:48;6.78;;;4.07;;
56267;SDS011;42175;46.930;9.532;2023-05-21T00:21:14;7.32;;;3.90;;
56267;SDS011;42175;46.930;9.532;2023-05-21T00:23:41;6.53;;;3.70;;
56267;SDS011;42175;46.930;9.532;2023-05-21T00:26:09;9.00;;;3.83;;
56267;SDS011;42175;46.930;9.532;2023-05-21T00:28:35;7.10;;;3.30;;
56267;SDS011;42175;46.930;9.532;2023-05-21T00:31:00;6.55;;;3.60;;
56267;SDS011;42175;46.930;9.532;2023-05-21T00:33:26;7.07;;;3.28;;
56267;SDS011;42175;46.930;9.532;2023-05-21T00:35:53;9.00;;;3.85;;
56267;SDS011;42175;46.930;9.532;2023-05-21T00:38:19;6.60;;;3.75;;
56267;SDS011;42175;46.930;9.532;2023-05-21T00:40:46;4.45;;;2.90;;
56267;SDS011;42175;46.930;9.532;2023-05-21T00:43:12;7.57;;;4.05;;
56267;SDS011;42175;46.930;9.532;2023-05-21T00:45:39;4.57;;;3.83;;
56267;SDS011;42175;46.930;9.532;2023-05-21T00:48:08;6.85;;;3.53;;
56267;SDS011;42175;46.930;9.532;2023-05-21T00:50:35;4.10;;;3.33;;
56267;SDS011;42175;46.930;9.532;2023-05-21T00:53:04;3.63;;;3.17;;
56267;SDS011;42175;46.930;9.532;2023-05-21T00:55:34;4.47;;;3.60;;
56267;SDS011;42175;46.930;9.532;2023-05-21T00:58:03;9.88;;;3.35;;
56267;SDS011;42175;46.930;9.532;2023-05-21T01:00:31;4.45;;;3.40;;
56267;SDS011;42175;46.930;9.532;2023-05-21T01:02:58;4.07;;;3.17;;
56267;SDS011;42175;46.930;9.532;2023-05-21T01:05:24;5.03;;;3.33;;
56267;SDS011;42175;46.930;9.532;2023-05-21T01:07:52;6.03;;;2.88;;
56267;SDS011;42175;46.930;9.532;2023-05-21T01:10:18;6.93;;;3.25;;
56267;SDS011;42175;46.930;9.532;2023-05-21T01:12:45;6.45;;;3.47;;
56267;SDS011;42175;46.930;9.532;2023-05-21T01:15:11;3.70;;;3.22;;
56267;SDS011;42175;46.930;9.532;2023-05-21T01:17:38;4.70;;;3.22;;
56267;SDS011;42175;46.930;9.532;2023-05-21T01:20:05;6.43;;;2.90;;
56267;SDS011;42175;46.930;9.532;2023-05-21T01:22:35;5.28;;;3.00;;
56267;SDS011;42175;46.930;9.532;2023-05-21T01:25:03;5.38;;;3.05;;
56267;SDS011;42175;46.930;9.532;2023-05-21T01:27:29;5.25;;;2.70;;
56267;SDS011;42175;46.930;9.532;2023-05-21T01:29:55;4.93;;;2.55;;
56267;SDS011;42175;46.930;9.532;2023-05-21T01:32:25;7.28;;;2.75;;
56267;SDS011;42175;46.930;9.532;2023-05-21T01:35:00;3.95;;;3.22;;
56267;SDS011;42175;46.930;9.532;2023-05-21T01:37:36;5.63;;;2.80;;
56267;SDS011;42175;46.930;9.532;2023-05-21T01:42:53;6.65;;;2.97;;
56267;SDS011;42175;46.930;9.532;2023-05-21T01:45:19;4.18;;;2.65;;
56267;SDS011;42175;46.930;9.532;2023-05-21T01:47:48;7.95;;;2.75;;
56267;SDS011;42175;46.930;9.532;2023-05-21T01:50:17;5.13;;;2.78;;
56267;SDS011;42175;46.930;9.532;2023-05-21T01:52:52;4.25;;;2.65;;
56267;SDS011;42175;46.930;9.532;2023-05-21T01:55:21;4.22;;;2.42;;
56267;SDS011;42175;46.930;9.532;2023-05-21T01:57:54;3.42;;;2.67;;
56267;SDS011;42175;46.930;9.532;2023-05-21T02:00:20;3.60;;;2.67;;
56267;SDS011;42175;46.930;9.532;2023-05-21T02:02:47;7.10;;;2.30;;
56267;SDS011;42175;46.930;9.532;2023-05-21T02:05:14;4.78;;;2.78;;
56267;SDS011;42175;46.930;9.532;2023-05-21T02:07:40;4.82;;;2.67;;
56267;SDS011;42175;46.930;9.532;2023-05-21T02:10:08;3.33;;;2.30;;
56267;SDS011;42175;46.930;9.532;2023-05-21T02:12:34;4.53;;;2.65;;
56267;SDS011;42175;46.930;9.532;2023-05-21T02:14:59;3.92;;;2.30;;
56267;SDS011;42175;46.930;9.532;2023-05-21T02:17:26;4.28;;;2.40;;
56267;SDS011;42175;46.930;9.532;2023-05-21T02:19:55;4.30;;;2.60;;
56267;SDS011;42175;46.930;9.532;2023-05-21T02:22:21;4.68;;;2.50;;
56267;SDS011;42175;46.930;9.532;2023-05-21T02:24:47;5.30;;;3.00;;
56267;SDS011;42175;46.930;9.532;2023-05-21T02:27:13;2.90;;;2.22;;
56267;SDS011;42175;46.930;9.532;2023-05-21T02:29:41;3.85;;;2.03;;
56267;SDS011;42175;46.930;9.532;2023-05-21T02:32:07;4.03;;;2.35;;
56267;SDS011;42175;46.930;9.532;2023-05-21T02:34:33;2.83;;;2.25;;
56267;SDS011;42175;46.930;9.532;2023-05-21T02:36:58;5.03;;;2.15;;
56267;SDS011;42175;46.930;9.532;2023-05-21T02:39:25;2.75;;;2.45;;
56267;SDS011;42175;46.930;9.532;2023-05-21T02:41:51;3.13;;;2.08;;
56267;SDS011;42175;46.930;9.532;2023-05-21T02:44:17;5.55;;;2.53;;
56267;SDS011;42175;46.930;9.532;2023-05-21T02:46:43;4.63;;;2.60;;
56267;SDS011;42175;46.930;9.532;2023-05-21T02:49:09;3.03;;;2.15;;
56267;SDS011;42175;46.930;9.532;2023-05-21T02:51:34;3.90;;;1.88;;
56267;SDS011;42175;46.930;9.532;2023-05-21T02:54:00;6.85;;;2.72;;
56267;SDS011;42175;46.930;9.532;2023-05-21T02:56:26;7.13;;;2.22;;
56267;SDS011;42175;46.930;9.532;2023-05-21T02:58:51;3.95;;;2.00;;
56267;SDS011;42175;46.930;9.532;2023-05-21T03:01:18;2.72;;;1.88;;
56267;SDS011;42175;46.930;9.532;2023-05-21T03:03:44;5.60;;;2.05;;
56267;SDS011;42175;46.930;9.532;2023-05-21T03:06:10;2.88;;;1.98;;
56267;SDS011;42175;46.930;9.532;2023-05-21T03:08:36;3.33;;;2.22;;
56267;SDS011;42175;46.930;9.532;2023-05-21T03:11:01;3.05;;;2.00;;
56267;SDS011;42175;46.930;9.532;2023-05-21T03:13:27;2.90;;;2.00;;
56267;SDS011;42175;46.930;9.532;2023-05-21T03:15:53;2.60;;;1.88;;
56267;SDS011;42175;46.930;9.532;2023-05-21T03:18:20;5.47;;;1.70;;
56267;SDS011;42175;46.930;9.532;2023-05-21T03:20:47;4.68;;;1.77;;
56267;SDS011;42175;46.930;9.532;2023-05-21T03:23:12;3.70;;;1.80;;
56267;SDS011;42175;46.930;9.532;2023-05-21T03:25:38;3.63;;;2.00;;
56267;SDS011;42175;46.930;9.532;2023-05-21T03:28:04;2.67;;;1.90;;
56267;SDS011;42175;46.930;9.532;2023-05-21T03:30:30;3.70;;;2.10;;
56267;SDS011;42175;46.930;9.532;2023-05-21T03:32:56;9.50;;;2.00;;
56267;SDS011;42175;46.930;9.532;2023-05-21T03:35:23;5.50;;;2.10;;
56267;SDS011;42175;46.930;9.532;2023-05-21T03:37:49;4.43;;;1.67;;
56267;SDS011;42175;46.930;9.532;2023-05-21T03:40:15;2.70;;;1.80;;
56267;SDS011;42175;46.930;9.532;2023-05-21T03:42:41;4.45;;;1.63;;
56267;SDS011;42175;46.930;9.532;2023-05-21T03:45:07;3.03;;;1.55;;
56267;SDS011;42175;46.930;9.532;2023-05-21T03:47:33;3.05;;;1.80;;
56267;SDS011;42175;46.930;9.532;2023-05-21T03:50:00;2.85;;;1.67;;
56267;SDS011;42175;46.930;9.532;2023-05-21T03:52:26;4.57;;;1.98;;
56267;SDS011;42175;46.930;9.532;2023-05-21T03:54:52;2.13;;;1.40;;
56267;SDS011;42175;46.930;9.532;2023-05-21T03:57:18;2.00;;;1.50;;
56267;SDS011;42175;46.930;9.532;2023-05-21T03:59:43;2.65;;;1.73;;
56267;SDS011;42175;46.930;9.532;2023-05-21T04:02:09;2.35;;;1.48;;
56267;SDS011;42175;46.930;9.532;2023-05-21T04:04:35;3.47;;;1.42;;
56267;SDS011;42175;46.930;9.532;2023-05-21T04:07:01;2.63;;;1.40;;
56267;SDS011;42175;46.930;9.532;2023-05-21T04:09:29;3.40;;;1.58;;
56267;SDS011;42175;46.930;9.532;2023-05-21T04:11:54;3.70;;;1.42;;
56267;SDS011;42175;46.930;9.532;2023-05-21T04:14:23;5.38;;;1.75;;
56267;SDS011;42175;46.930;9.532;2023-05-21T04:16:49;2.83;;;1.70;;
56267;SDS011;42175;46.930;9.532;2023-05-21T04:19:14;2.45;;;1.60;;
56267;SDS011;42175;46.930;9.532;2023-05-21T04:21:40;3.08;;;1.35;;
56267;SDS011;42175;46.930;9.532;2023-05-21T04:24:09;2.20;;;1.50;;
56267;SDS011;42175;46.930;9.532;2023-05-21T04:26:34;6.35;;;1.80;;
56267;SDS011;42175;46.930;9.532;2023-05-21T04:29:00;5.43;;;1.70;;
56267;SDS011;42175;46.930;9.532;2023-05-21T04:31:29;4.60;;;1.63;;
56267;SDS011;42175;46.930;9.532;2023-05-21T04:33:55;2.10;;;1.48;;
56267;SDS011;42175;46.930;9.532;2023-05-21T04:36:22;4.38;;;1.60;;
56267;SDS011;42175;46.930;9.532;2023-05-21T04:38:48;1.63;;;1.30;;
56267;SDS011;42175;46.930;9.532;2023-05-21T04:41:14;2.30;;;1.50;;
56267;SDS011;42175;46.930;9.532;2023-05-21T04:43:43;4.82;;;1.30;;
56267;SDS011;42175;46.930;9.532;2023-05-21T04:46:08;2.92;;;1.90;;
56267;SDS011;42175;46.930;9.532;2023-05-21T04:48:34;2.35;;;1.30;;
56267;SDS011;42175;46.930;9.532;2023-05-21T04:51:00;2.67;;;1.17;;
56267;SDS011;42175;46.930;9.532;2023-05-21T04:53:25;2.55;;;1.50;;
56267;SDS011;42175;46.930;9.532;2023-05-21T04:55:51;2.63;;;1.52;;
56267;SDS011;42175;46.930;9.532;2023-05-21T04:58:17;5.57;;;2.08;;
56267;SDS011;42175;46.930;9.532;2023-05-21T05:00:43;3.60;;;1.38;;
56267;SDS011;42175;46.930;9.532;2023-05-21T05:03:11;3.35;;;1.38;;
56267;SDS011;42175;46.930;9.532;2023-05-21T05:05:37;3.38;;;1.70;;
56267;SDS011;42175;46.930;9.532;2023-05-21T05:08:03;1.85;;;1.40;;
56267;SDS011;42175;46.930;9.532;2023-05-21T05:10:31;2.75;;;1.20;;
56267;SDS011;42175;46.930;9.532;2023-05-21T05:12:56;3.90;;;1.65;;
56267;SDS011;42175;46.930;9.532;2023-05-21T05:15:22;3.65;;;1.45;;
56267;SDS011;42175;46.930;9.532;2023-05-21T05:17:48;5.05;;;1.92;;
56267;SDS011;42175;46.930;9.532;2023-05-21T05:20:14;5.03;;;1.50;;
56267;SDS011;42175;46.930;9.532;2023-05-21T05:22:40;2.72;;;1.70;;
56267;SDS011;42175;46.930;9.532;2023-05-21T05:25:05;2.20;;;1.38;;
56267;SDS011;42175;46.930;9.532;2023-05-21T05:27:31;2.30;;;1.30;;
56267;SDS011;42175;46.930;9.532;2023-05-21T05:29:57;1.83;;;1.40;;
56267;SDS011;42175;46.930;9.532;2023-05-21T05:32:23;2.72;;;1.40;;
56267;SDS011;42175;46.930;9.532;2023-05-21T05:34:49;2.60;;;1.33;;
56267;SDS011;42175;46.930;9.532;2023-05-21T05:37:15;2.20;;;1.75;;
56267;SDS011;42175;46.930;9.532;2023-05-21T05:39:41;8.75;;;6.28;;
56267;SDS011;42175;46.930;9.532;2023-05-21T05:42:07;8.82;;;5.30;;
56267;SDS011;42175;46.930;9.532;2023-05-21T05:44:32;11.73;;;2.97;;
56267;SDS011;42175;46.930;9.532;2023-05-21T05:46:58;12.30;;;4.80;;
56267;SDS011;42175;46.930;9.532;2023-05-21T05:49:24;17.58;;;8.85;;
56267;SDS011;42175;46.930;9.532;2023-05-21T05:51:50;34.03;;;14.55;;
56267;SDS011;42175;46.930;9.532;2023-05-21T05:54:15;24.83;;;11.65;;
56267;SDS011;42175;46.930;9.532;2023-05-21T05:56:41;21.17;;;10.07;;
56267;SDS011;42175;46.930;9.532;2023-05-21T05:59:07;27.27;;;10.80;;
56267;SDS011;42175;46.930;9.532;2023-05-21T06:01:32;32.80;;;12.10;;
56267;SDS011;42175;46.930;9.532;2023-05-21T06:03:58;18.10;;;8.40;;
56267;SDS011;42175;46.930;9.532;2023-05-21T06:06:24;25.13;;;8.88;;
56267;SDS011;42175;46.930;9.532;2023-05-21T06:08:49;16.75;;;7.85;;
56267;SDS011;42175;46.930;9.532;2023-05-21T06:11:15;12.98;;;5.28;;
56267;SDS011;42175;46.930;9.532;2023-05-21T06:13:42;15.43;;;7.10;;
56267;SDS011;42175;46.930;9.532;2023-05-21T06:16:08;18.58;;;6.90;;
56267;SDS011;42175;46.930;9.532;2023-05-21T06:18:35;13.65;;;7.07;;
56267;SDS011;42175;46.930;9.532;2023-05-21T06:21:02;13.98;;;5.90;;
56267;SDS011;42175;46.930;9.532;2023-05-21T06:23:28;15.63;;;6.32;;
56267;SDS011;42175;46.930;9.532;2023-05-21T06:25:56;17.45;;;6.03;;
56267;SDS011;42175;46.930;9.532;2023-05-21T06:28:21;14.90;;;5.75;;
56267;SDS011;42175;46.930;9.532;2023-05-21T06:30:47;14.13;;;5.57;;
56267;SDS011;42175;46.930;9.532;2023-05-21T06:33:13;11.27;;;5.30;;
56267;SDS011;42175;46.930;9.532;2023-05-21T06:35:38;12.25;;;4.40;;
56267;SDS011;42175;46.930;9.532;2023-05-21T06:38:04;8.52;;;4.72;;
56267;SDS011;42175;46.930;9.532;2023-05-21T06:40:30;13.52;;;4.85;;
56267;SDS011;42175;46.930;9.532;2023-05-21T06:42:56;12.82;;;4.47;;
56267;SDS011;42175;46.930;9.532;2023-05-21T06:45:23;10.13;;;3.67;;
56267;SDS011;42175;46.930;9.532;2023-05-21T06:47:49;12.02;;;4.22;;
56267;SDS011;42175;46.930;9.532;2023-05-21T06:50:15;8.48;;;3.15;;
56267;SDS011;42175;46.930;9.532;2023-05-21T06:52:41;10.18;;;3.15;;
56267;SDS011;42175;46.930;9.532;2023-05-21T06:55:07;7.90;;;3.15;;
56267;SDS011;42175;46.930;9.532;2023-05-21T06:57:33;8.30;;;2.75;;
56267;SDS011;42175;46.930;9.532;2023-05-21T06:59:58;8.30;;;2.95;;
56267;SDS011;42175;46.930;9.532;2023-05-21T07:02:24;14.63;;;2.80;;
56267;SDS011;42175;46.930;9.532;2023-05-21T07:04:50;9.88;;;3.53;;
56267;SDS011;42175;46.930;9.532;2023-05-21T07:07:17;5.63;;;2.97;;
56267;SDS011;42175;46.930;9.532;2023-05-21T07:09:43;6.40;;;2.70;;
56267;SDS011;42175;46.930;9.532;2023-05-21T07:12:09;4.60;;;2.28;;
56267;SDS011;42175;46.930;9.532;2023-05-21T07:14:34;6.30;;;2.47;;
56267;SDS011;42175;46.930;9.532;2023-05-21T07:17:00;5.07;;;2.33;;
56267;SDS011;42175;46.930;9.532;2023-05-21T07:19:26;6.93;;;2.30;;
56267;SDS011;42175;46.930;9.532;2023-05-21T07:21:51;10.00;;;2.60;;
56267;SDS011;42175;46.930;9.532;2023-05-21T07:24:17;5.50;;;2.25;;
56267;SDS011;42175;46.930;9.532;2023-05-21T07:26:43;7.63;;;2.40;;
56267;SDS011;42175;46.930;9.532;2023-05-21T07:29:08;8.40;;;2.22;;
56267;SDS011;42175;46.930;9.532;2023-05-21T07:31:34;7.35;;;2.03;;
56267;SDS011;42175;46.930;9.532;2023-05-21T07:34:00;6.25;;;1.90;;
56267;SDS011;42175;46.930;9.532;2023-05-21T07:36:26;8.20;;;2.92;;
56267;SDS011;42175;46.930;9.532;2023-05-21T07:38:51;4.95;;;2.10;;
56267;SDS011;42175;46.930;9.532;2023-05-21T07:41:17;3.97;;;1.60;;
56267;SDS011;42175;46.930;9.532;2023-05-21T07:43:43;14.70;;;2.10;;
56267;SDS011;42175;46.930;9.532;2023-05-21T07:46:08;10.10;;;1.75;;
56267;SDS011;42175;46.930;9.532;2023-05-21T07:48:34;6.38;;;1.42;;
56267;SDS011;42175;46.930;9.532;2023-05-21T07:51:00;4.45;;;1.55;;
56267;SDS011;42175;46.930;9.532;2023-05-21T07:53:25;4.60;;;1.48;;
56267;SDS011;42175;46.930;9.532;2023-05-21T07:55:51;6.90;;;1.48;;
56267;SDS011;42175;46.930;9.532;2023-05-21T07:58:17;3.38;;;1.20;;
56267;SDS011;42175;46.930;9.532;2023-05-21T08:00:44;3.50;;;1.40;;
56267;SDS011;42175;46.930;9.532;2023-05-21T08:03:15;2.33;;;1.13;;
56267;SDS011;42175;46.930;9.532;2023-05-21T08:05:43;7.57;;;1.30;;
56267;SDS011;42175;46.930;9.532;2023-05-21T08:08:19;1.95;;;1.20;;
56267;SDS011;42175;46.930;9.532;2023-05-21T08:10:46;1.35;;;1.05;;
56267;SDS011;42175;46.930;9.532;2023-05-21T08:13:12;9.43;;;1.20;;
56267;SDS011;42175;46.930;9.532;2023-05-21T08:15:39;3.50;;;1.17;;
56267;SDS011;42175;46.930;9.532;2023-05-21T08:18:04;4.15;;;1.20;;
56267;SDS011;42175;46.930;9.532;2023-05-21T08:20:30;5.22;;;1.30;;
56267;SDS011;42175;46.930;9.532;2023-05-21T08:22:57;7.15;;;1.35;;
56267;SDS011;42175;46.930;9.532;2023-05-21T08:25:24;3.53;;;1.38;;
56267;SDS011;42175;46.930;9.532;2023-05-21T08:27:50;2.20;;;1.40;;
56267;SDS011;42175;46.930;9.532;2023-05-21T08:30:16;4.18;;;1.27;;
56267;SDS011;42175;46.930;9.532;2023-05-21T08:32:42;4.97;;;1.52;;
56267;SDS011;42175;46.930;9.532;2023-05-21T08:35:07;3.10;;;1.05;;
56267;SDS011;42175;46.930;9.532;2023-05-21T08:37:33;1.92;;;1.00;;
56267;SDS011;42175;46.930;9.532;2023-05-21T08:39:59;5.25;;;1.30;;
56267;SDS011;42175;46.930;9.532;2023-05-21T08:45:12;2.80;;;1.30;;
56267;SDS011;42175;46.930;9.532;2023-05-21T08:47:42;2.60;;;1.17;;
56267;SDS011;42175;46.930;9.532;2023-05-21T08:50:12;5.13;;;1.20;;
56267;SDS011;42175;46.930;9.532;2023-05-21T08:52:40;3.03;;;1.30;;
56267;SDS011;42175;46.930;9.532;2023-05-21T08:55:06;1.92;;;1.10;;
56267;SDS011;42175;46.930;9.532;2023-05-21T08:57:33;3.95;;;1.20;;
56267;SDS011;42175;46.930;9.532;2023-05-21T08:59:59;3.70;;;1.20;;
56267;SDS011;42175;46.930;9.532;2023-05-21T09:02:26;1.73;;;1.10;;
56267;SDS011;42175;46.930;9.532;2023-05-21T09:04:54;3.08;;;1.25;;
56267;SDS011;42175;46.930;9.532;2023-05-21T09:07:26;1.60;;;1.10;;
56267;SDS011;42175;46.930;9.532;2023-05-21T09:10:03;4.95;;;1.20;;
56267;SDS011;42175;46.930;9.532;2023-05-21T09:12:35;3.13;;;1.40;;
56267;SDS011;42175;46.930;9.532;2023-05-21T09:15:01;3.20;;;1.40;;
56267;SDS011;42175;46.930;9.532;2023-05-21T09:17:28;3.72;;;1.30;;
56267;SDS011;42175;46.930;9.532;2023-05-21T09:25:08;2.50;;;1.20;;
56267;SDS011;42175;46.930;9.532;2023-05-21T09:27:40;2.43;;;1.40;;
56267;SDS011;42175;46.930;9.532;2023-05-21T09:30:10;3.00;;;1.10;;
56267;SDS011;42175;46.930;9.532;2023-05-21T09:32:37;2.10;;;1.40;;
56267;SDS011;42175;46.930;9.532;2023-05-21T09:35:10;2.28;;;1.50;;
56267;SDS011;42175;46.930;9.532;2023-05-21T09:37:46;3.03;;;1.23;;
56267;SDS011;42175;46.930;9.532;2023-05-21T09:40:16;4.65;;;1.40;;
56267;SDS011;42175;46.930;9.532;2023-05-21T09:42:44;3.47;;;1.67;;
56267;SDS011;42175;46.930;9.532;2023-05-21T09:45:19;4.97;;;1.80;;
56267;SDS011;42175;46.930;9.532;2023-05-21T09:47:47;3.00;;;1.30;;
56267;SDS011;42175;46.930;9.532;2023-05-21T09:50:20;4.90;;;1.40;;
56267;SDS011;42175;46.930;9.532;2023-05-21T09:52:48;2.65;;;1.70;;
56267;SDS011;42175;46.930;9.532;2023-05-21T09:55:17;2.70;;;1.40;;
56267;SDS011;42175;46.930;9.532;2023-05-21T09:57:46;2.97;;;1.70;;
56267;SDS011;42175;46.930;9.532;2023-05-21T10:00:23;4.22;;;1.88;;
56267;SDS011;42175;46.930;9.532;2023-05-21T10:02:55;4.00;;;1.83;;
56267;SDS011;42175;46.930;9.532;2023-05-21T10:05:26;3.63;;;1.75;;
56267;SDS011;42175;46.930;9.532;2023-05-21T10:07:55;4.88;;;2.35;;
56267;SDS011;42175;46.930;9.532;2023-05-21T10:10:25;2.90;;;1.70;;
56267;SDS011;42175;46.930;9.532;2023-05-21T10:15:41;4.38;;;2.13;;
56267;SDS011;42175;46.930;9.532;2023-05-21T10:18:09;4.53;;;2.22;;
56267;SDS011;42175;46.930;9.532;2023-05-21T10:20:37;3.30;;;2.13;;
56267;SDS011;42175;46.930;9.532;2023-05-21T10:23:03;5.03;;;2.13;;
56267;SDS011;42175;46.930;9.532;2023-05-21T10:25:29;5.03;;;2.63;;
56267;SDS011;42175;46.930;9.532;2023-05-21T10:27:56;4.57;;;2.40;;
56267;SDS011;42175;46.930;9.532;2023-05-21T10:30:22;4.38;;;2.78;;
56267;SDS011;42175;46.930;9.532;2023-05-21T10:32:49;5.07;;;2.67;;
56267;SDS011;42175;46.930;9.532;2023-05-21T10:35:15;9.75;;;2.70;;
56267;SDS011;42175;46.930;9.532;2023-05-21T10:37:44;6.88;;;2.45;;
56267;SDS011;42175;46.930;9.532;2023-05-21T10:40:10;3.38;;;2.40;;
56267;SDS011;42175;46.930;9.532;2023-05-21T10:45:49;4.22;;;2.90;;
56267;SDS011;42175;46.930;9.532;2023-05-21T10:51:27;4.90;;;2.80;;
56267;SDS011;42175;46.930;9.532;2023-05-21T10:59:41;4.47;;;3.20;;
56267;SDS011;42175;46.930;9.532;2023-05-21T11:02:08;6.90;;;3.03;;
56267;SDS011;42175;46.930;9.532;2023-05-21T11:04:36;7.30;;;3.47;;
56267;SDS011;42175;46.930;9.532;2023-05-21T11:07:05;6.25;;;3.28;;
56267;SDS011;42175;46.930;9.532;2023-05-21T11:09:31;3.97;;;2.85;;
56267;SDS011;42175;46.930;9.532;2023-05-21T11:11:57;6.03;;;3.40;;
56267;SDS011;42175;46.930;9.532;2023-05-21T11:17:00;6.88;;;4.00;;
56267;SDS011;42175;46.930;9.532;2023-05-21T11:19:46;5.68;;;3.50;;
56267;SDS011;42175;46.930;9.532;2023-05-21T11:22:21;11.18;;;3.63;;
56267;SDS011;42175;46.930;9.532;2023-05-21T11:24:49;8.02;;;4.00;;
56267;SDS011;42175;46.930;9.532;2023-05-21T11:27:34;4.90;;;3.65;;
56267;SDS011;42175;46.930;9.532;2023-05-21T11:30:08;7.00;;;3.70;;
56267;SDS011;42175;46.930;9.532;2023-05-21T11:32:38;5.57;;;3.90;;
56267;SDS011;42175;46.930;9.532;2023-05-21T11:35:25;6.40;;;3.80;;
56267;SDS011;42175;46.930;9.532;2023-05-21T11:37:55;5.75;;;3.90;;
56267;SDS011;42175;46.930;9.532;2023-05-21T11:40:26;6.63;;;3.70;;
56267;SDS011;42175;46.930;9.532;2023-05-21T11:42:54;4.75;;;3.05;;
56267;SDS011;42175;46.930;9.532;2023-05-21T11:45:21;5.05;;;3.70;;
56267;SDS011;42175;46.930;9.532;2023-05-21T11:47:52;4.80;;;3.70;;
56267;SDS011;42175;46.930;9.532;2023-05-21T11:50:18;10.85;;;4.32;;
56267;SDS011;42175;46.930;9.532;2023-05-21T11:52:44;7.10;;;3.83;;
56267;SDS011;42175;46.930;9.532;2023-05-21T11:55:10;5.03;;;3.60;;
56267;SDS011;42175;46.930;9.532;2023-05-21T11:57:39;6.38;;;3.63;;
56267;SDS011;42175;46.930;9.532;2023-05-21T12:00:11;5.63;;;4.03;;
56267;SDS011;42175;46.930;9.532;2023-05-21T12:03:00;9.20;;;4.28;;
56267;SDS011;42175;46.930;9.532;2023-05-21T12:05:25;8.00;;;4.30;;
56267;SDS011;42175;46.930;9.532;2023-05-21T12:07:51;11.55;;;4.65;;
56267;SDS011;42175;46.930;9.532;2023-05-21T12:10:21;6.80;;;4.32;;
56267;SDS011;42175;46.930;9.532;2023-05-21T12:12:47;9.55;;;5.03;;
56267;SDS011;42175;46.930;9.532;2023-05-21T12:15:15;7.93;;;4.43;;
56267;SDS011;42175;46.930;9.532;2023-05-21T12:17:42;6.47;;;4.53;;
56267;SDS011;42175;46.930;9.532;2023-05-21T12:20:07;7.40;;;4.82;;
56267;SDS011;42175;46.930;9.532;2023-05-21T12:22:39;9.73;;;4.93;;
56267;SDS011;42175;46.930;9.532;2023-05-21T12:25:07;8.45;;;4.28;;
56267;SDS011;42175;46.930;9.532;2023-05-21T12:27:34;6.35;;;4.13;;
56267;SDS011;42175;46.930;9.532;2023-05-21T12:30:01;7.00;;;4.60;;
56267;SDS011;42175;46.930;9.532;2023-05-21T12:32:28;9.23;;;4.78;;
56267;SDS011;42175;46.930;9.532;2023-05-21T12:34:54;10.00;;;5.28;;
56267;SDS011;42175;46.930;9.532;2023-05-21T12:37:21;9.18;;;4.65;;
56267;SDS011;42175;46.930;9.532;2023-05-21T12:39:54;8.45;;;4.40;;
56267;SDS011;42175;46.930;9.532;2023-05-21T12:42:23;5.55;;;4.50;;
56267;SDS011;42175;46.930;9.532;2023-05-21T12:44:51;8.43;;;4.55;;
56267;SDS011;42175;46.930;9.532;2023-05-21T12:47:17;10.15;;;5.00;;
56267;SDS011;42175;46.930;9.532;2023-05-21T12:49:44;6.78;;;4.53;;
56267;SDS011;42175;46.930;9.532;2023-05-21T12:52:13;8.30;;;5.10;;
56267;SDS011;42175;46.930;9.532;2023-05-21T12:54:45;7.78;;;5.00;;
56267;SDS011;42175;46.930;9.532;2023-05-21T12:57:16;7.30;;;5.15;;
56267;SDS011;42175;46.930;9.532;2023-05-21T13:02:37;7.60;;;5.78;;
56267;SDS011;42175;46.930;9.532;2023-05-21T13:05:05;8.32;;;4.85;;
56267;SDS011;42175;46.930;9.532;2023-05-21T13:07:33;7.50;;;5.40;;
56267;SDS011;42175;46.930;9.532;2023-05-21T13:10:00;7.60;;;5.25;;
56267;SDS011;42175;46.930;9.532;2023-05-21T13:12:27;8.45;;;5.68;;
56267;SDS011;42175;46.930;9.532;2023-05-21T13:14:55;6.97;;;4.75;;
56267;SDS011;42175;46.930;9.532;2023-05-21T13:17:23;9.20;;;5.45;;
56267;SDS011;42175;46.930;9.532;2023-05-21T13:22:50;7.07;;;5.18;;
56267;SDS011;42175;46.930;9.532;2023-05-21T13:25:17;7.32;;;5.30;;
56267;SDS011;42175;46.930;9.532;2023-05-21T13:27:46;6.43;;;5.07;;
56267;SDS011;42175;46.930;9.532;2023-05-21T13:30:15;7.55;;;5.45;;
56267;SDS011;42175;46.930;9.532;2023-05-21T13:32:42;9.90;;;5.15;;
56267;SDS011;42175;46.930;9.532;2023-05-21T13:35:08;8.30;;;5.35;;
56267;SDS011;42175;46.930;9.532;2023-05-21T13:37:35;9.32;;;5.60;;
56267;SDS011;42175;46.930;9.532;2023-05-21T13:40:03;9.30;;;5.15;;
56267;SDS011;42175;46.930;9.532;2023-05-21T13:42:30;6.35;;;5.53;;
56267;SDS011;42175;46.930;9.532;2023-05-21T13:44:57;8.80;;;5.68;;
56267;SDS011;42175;46.930;9.532;2023-05-21T13:47:22;10.57;;;5.95;;
56267;SDS011;42175;46.930;9.532;2023-05-21T13:49:48;8.50;;;5.45;;
56267;SDS011;42175;46.930;9.532;2023-05-21T13:52:14;7.45;;;5.57;;
56267;SDS011;42175;46.930;9.532;2023-05-21T13:54:41;7.85;;;5.68;;
56267;SDS011;42175;46.930;9.532;2023-05-21T13:57:07;6.93;;;4.88;;
56267;SDS011;42175;46.930;9.532;2023-05-21T13:59:33;7.93;;;5.47;;
56267;SDS011;42175;46.930;9.532;2023-05-21T14:01:59;7.28;;;5.88;;
56267;SDS011;42175;46.930;9.532;2023-05-21T14:04:25;6.82;;;5.13;;
56267;SDS011;42175;46.930;9.532;2023-05-21T14:06:50;8.43;;;5.53;;
56267;SDS011;42175;46.930;9.532;2023-05-21T14:09:16;9.23;;;5.47;;
56267;SDS011;42175;46.930;9.532;2023-05-21T14:11:42;10.10;;;5.97;;
56267;SDS011;42175;46.930;9.532;2023-05-21T14:14:08;10.10;;;5.72;;
56267;SDS011;42175;46.930;9.532;2023-05-21T14:16:34;10.75;;;6.00;;
56267;SDS011;42175;46.930;9.532;2023-05-21T14:18:59;7.00;;;5.20;;
56267;SDS011;42175;46.930;9.532;2023-05-21T14:21:25;8.65;;;5.72;;
56267;SDS011;42175;46.930;9.532;2023-05-21T14:23:51;7.45;;;5.57;;
56267;SDS011;42175;46.930;9.532;2023-05-21T14:26:17;8.77;;;5.05;;
56267;SDS011;42175;46.930;9.532;2023-05-21T14:28:42;6.88;;;5.35;;
56267;SDS011;42175;46.930;9.532;2023-05-21T14:31:09;10.32;;;6.20;;
56267;SDS011;42175;46.930;9.532;2023-05-21T14:33:35;8.55;;;6.03;;
56267;SDS011;42175;46.930;9.532;2023-05-21T14:36:02;8.20;;;6.22;;
56267;SDS011;42175;46.930;9.532;2023-05-21T14:38:28;7.60;;;6.05;;
56267;SDS011;42175;46.930;9.532;2023-05-21T14:40:54;10.75;;;5.80;;
56267;SDS011;42175;46.930;9.532;2023-05-21T14:43:20;8.98;;;5.82;;
56267;SDS011;42175;46.930;9.532;2023-05-21T14:45:45;9.93;;;6.05;;
56267;SDS011;42175;46.930;9.532;2023-05-21T14:48:11;6.70;;;5.25;;
56267;SDS011;42175;46.930;9.532;2023-05-21T14:50:37;9.63;;;5.82;;
56267;SDS011;42175;46.930;9.532;2023-05-21T14:53:06;9.80;;;5.30;;
56267;SDS011;42175;46.930;9.532;2023-05-21T14:55:32;7.40;;;5.13;;
56267;SDS011;42175;46.930;9.532;2023-05-21T14:57:59;7.78;;;6.40;;
56267;SDS011;42175;46.930;9.532;2023-05-21T15:00:25;11.02;;;6.10;;
56267;SDS011;42175;46.930;9.532;2023-05-21T15:02:51;8.05;;;5.82;;
56267;SDS011;42175;46.930;9.532;2023-05-21T15:05:17;12.65;;;6.57;;
56267;SDS011;42175;46.930;9.532;2023-05-21T15:07:43;10.00;;;6.07;;
56267;SDS011;42175;46.930;9.532;2023-05-21T15:10:09;12.90;;;6.57;;
56267;SDS011;42175;46.930;9.532;2023-05-21T15:12:35;7.28;;;6.15;;
56267;SDS011;42175;46.930;9.532;2023-05-21T15:15:02;7.35;;;5.80;;
56267;SDS011;42175;46.930;9.532;2023-05-21T15:17:27;9.52;;;6.07;;
56267;SDS011;42175;46.930;9.532;2023-05-21T15:19:53;10.07;;;5.90;;